createdAt,value
2018-07-12T00:00:01.096Z,12.61
2018-07-12T00:00:05.314Z,12.61
2018-07-12T00:00:09.347Z,12.63
2018-07-12T00:00:13.448Z,12.61
2018-07-12T00:00:17.655Z,12.62
2018-07-12T00:00:21.861Z,12.61
2018-07-12T00:00:26.071Z,12.62
2018-07-12T00:00:30.392Z,12.61
2018-07-12T00:00:34.495Z,12.61
2018-07-12T00:00:38.700Z,12.62
2018-07-12T00:00:42.910Z,12.61
2018-07-12T00:00:47.227Z,12.61
2018-07-12T00:00:51.534Z,12.62
2018-07-12T00:00:55.764Z,12.61
2018-07-12T00:01:00.086Z,12.61
2018-07-12T00:01:04.085Z,12.61
2018-07-12T00:01:08.076Z,12.62
2018-07-12T00:01:12.281Z,12.62
2018-07-12T00:01:16.597Z,12.61
2018-07-12T00:01:20.921Z,12.61
2018-07-12T00:01:25.119Z,12.61
2018-07-12T00:01:29.444Z,12.61
2018-07-12T00:01:33.760Z,12.6
2018-07-12T00:01:38.007Z,12.61
2018-07-12T00:01:42.219Z,12.6
2018-07-12T00:01:46.437Z,12.6
2018-07-12T00:01:50.756Z,12.6
2018-07-12T00:01:54.965Z,12.59
2018-07-12T00:01:59.274Z,12.59
2018-07-12T00:02:03.378Z,12.6
2018-07-12T00:02:07.470Z,12.6
2018-07-12T00:02:11.676Z,12.6
2018-07-12T00:02:15.892Z,12.59
2018-07-12T00:02:20.204Z,12.6
2018-07-12T00:02:24.513Z,12.59
2018-07-12T00:02:28.714Z,12.59
2018-07-12T00:02:32.918Z,12.59
2018-07-12T00:02:37.123Z,12.59
2018-07-12T00:02:41.223Z,12.6
2018-07-12T00:02:45.537Z,12.59
2018-07-12T00:02:49.845Z,12.58
2018-07-12T00:02:54.051Z,12.59
2018-07-12T00:02:58.253Z,12.58
2018-07-12T00:03:02.468Z,12.58
2018-07-12T00:03:06.578Z,12.58
2018-07-12T00:03:10.785Z,12.58
2018-07-12T00:03:14.988Z,12.58
2018-07-12T00:03:19.298Z,12.59
2018-07-12T00:03:23.508Z,12.58
2018-07-12T00:03:27.601Z,12.57
2018-07-12T00:03:31.909Z,12.58
2018-07-12T00:03:36.115Z,12.58
2018-07-12T00:03:40.320Z,12.58
2018-07-12T00:03:44.633Z,12.58
2018-07-12T00:03:48.730Z,12.58
2018-07-12T00:03:52.830Z,12.56
2018-07-12T00:03:57.035Z,12.57
2018-07-12T00:04:01.231Z,12.56
2018-07-12T00:04:05.233Z,12.56
2018-07-12T00:04:09.538Z,12.57
2018-07-12T00:04:13.742Z,12.56
2018-07-12T00:04:17.845Z,12.56
2018-07-12T00:04:22.094Z,12.56
2018-07-12T00:04:26.415Z,12.56
2018-07-12T00:04:30.509Z,12.56
2018-07-12T00:04:34.829Z,12.56
2018-07-12T00:04:38.933Z,12.55
2018-07-12T00:04:43.030Z,12.55
2018-07-12T00:04:47.343Z,12.55
2018-07-12T00:04:51.452Z,12.54
2018-07-12T00:04:55.762Z,12.54
2018-07-12T00:05:00.075Z,12.55
2018-07-12T00:05:04.283Z,12.54
2018-07-12T00:05:08.392Z,12.55
2018-07-12T00:05:12.606Z,12.55
2018-07-12T00:05:16.915Z,12.54
2018-07-12T00:05:21.014Z,12.54
2018-07-12T00:05:25.117Z,12.54
2018-07-12T00:05:29.426Z,12.54
2018-07-12T00:05:33.738Z,12.54
2018-07-12T00:05:37.946Z,12.54
2018-07-12T00:05:42.263Z,12.53
2018-07-12T00:05:46.575Z,12.53
2018-07-12T00:05:50.776Z,12.53
2018-07-12T00:05:55.091Z,12.53
2018-07-12T00:05:59.294Z,12.53
2018-07-12T00:06:03.513Z,12.52
2018-07-12T00:06:07.617Z,12.52
2018-07-12T00:06:11.840Z,12.52
2018-07-12T00:06:16.056Z,12.52
2018-07-12T00:06:20.375Z,12.52
2018-07-12T00:06:24.689Z,12.52
2018-07-12T00:06:28.997Z,12.52
2018-07-12T00:06:33.201Z,12.51
2018-07-12T00:06:37.516Z,12.52
2018-07-12T00:06:41.716Z,12.52
2018-07-12T00:06:45.925Z,12.51
2018-07-12T00:06:50.242Z,12.51
2018-07-12T00:06:54.557Z,12.51
2018-07-12T00:06:58.867Z,12.5
2018-07-12T00:07:02.969Z,12.5
2018-07-12T00:07:07.061Z,12.49
2018-07-12T00:07:11.378Z,12.5
2018-07-12T00:07:15.590Z,12.5
2018-07-12T00:07:19.896Z,12.5
2018-07-12T00:07:24.104Z,12.49
2018-07-12T00:07:28.311Z,12.5
2018-07-12T00:07:32.625Z,12.5
2018-07-12T00:07:36.936Z,12.49
2018-07-12T00:07:41.029Z,12.49
2018-07-12T00:07:45.251Z,12.48
2018-07-12T00:07:49.568Z,12.48
2018-07-12T00:07:53.781Z,12.48
2018-07-12T00:07:58.089Z,12.48
2018-07-12T00:08:02.402Z,12.48
2018-07-12T00:08:06.501Z,12.47
2018-07-12T00:08:10.712Z,12.48
2018-07-12T00:08:14.916Z,12.47
2018-07-12T00:08:19.015Z,12.48
2018-07-12T00:08:23.002Z,12.47
2018-07-12T00:08:27.310Z,12.46
2018-07-12T00:08:31.416Z,12.46
2018-07-12T00:08:35.618Z,12.46
2018-07-12T00:08:39.936Z,12.46
2018-07-12T00:08:44.148Z,12.46
2018-07-12T00:08:48.456Z,12.46
2018-07-12T00:08:52.776Z,12.45
2018-07-12T00:08:57.089Z,12.46
2018-07-12T00:09:01.290Z,12.45
2018-07-12T00:09:05.401Z,12.44
2018-07-12T00:09:09.648Z,12.45
2018-07-12T00:09:13.856Z,12.45
2018-07-12T00:09:18.167Z,12.44
2018-07-12T00:09:22.374Z,12.45
2018-07-12T00:09:26.690Z,12.44
2018-07-12T00:09:30.999Z,12.44
2018-07-12T00:09:35.352Z,12.43
2018-07-12T00:09:39.683Z,12.44
2018-07-12T00:09:44.000Z,12.44
2018-07-12T00:09:48.205Z,12.43
2018-07-12T00:09:52.513Z,12.43
2018-07-12T00:09:56.835Z,12.43
2018-07-12T00:10:00.974Z,12.42
2018-07-12T00:10:05.186Z,12.42
2018-07-12T00:10:09.389Z,12.42
2018-07-12T00:10:13.698Z,12.42
2018-07-12T00:10:17.896Z,12.41
2018-07-12T00:10:22.203Z,12.41
2018-07-12T00:10:26.512Z,12.42
2018-07-12T00:10:30.717Z,12.41
2018-07-12T00:10:35.024Z,12.41
2018-07-12T00:10:39.119Z,12.41
2018-07-12T00:10:43.320Z,12.4
2018-07-12T00:10:47.628Z,12.4
2018-07-12T00:10:51.933Z,12.4
2018-07-12T00:10:56.245Z,12.4
2018-07-12T00:11:00.236Z,12.4
2018-07-12T00:11:04.331Z,12.4
2018-07-12T00:11:08.545Z,12.39
2018-07-12T00:11:12.865Z,12.39
2018-07-12T00:11:17.068Z,12.39
2018-07-12T00:11:21.276Z,12.38
2018-07-12T00:11:25.589Z,12.37
2018-07-12T00:11:29.794Z,12.38
2018-07-12T00:11:34.110Z,12.38
2018-07-12T00:11:38.420Z,12.37
2018-07-12T00:11:42.741Z,12.37
2018-07-12T00:11:46.946Z,12.37
2018-07-12T00:11:51.258Z,12.37
2018-07-12T00:11:55.566Z,12.37
2018-07-12T00:11:59.765Z,12.36
2018-07-12T00:12:04.019Z,12.35
2018-07-12T00:12:08.008Z,12.35
2018-07-12T00:12:12.325Z,12.35
2018-07-12T00:12:16.424Z,12.35
2018-07-12T00:12:20.742Z,12.34
2018-07-12T00:12:25.049Z,12.34
2018-07-12T00:12:29.144Z,12.34
2018-07-12T00:12:33.454Z,12.34
2018-07-12T00:12:37.657Z,12.34
2018-07-12T00:12:41.859Z,12.34
2018-07-12T00:12:46.063Z,12.33
2018-07-12T00:12:50.261Z,12.33
2018-07-12T00:12:54.576Z,12.33
2018-07-12T00:12:58.887Z,12.32
2018-07-12T00:13:02.990Z,12.32
2018-07-12T00:13:07.301Z,12.32
2018-07-12T00:13:11.611Z,12.31
2018-07-12T00:13:15.757Z,12.31
2018-07-12T00:13:20.068Z,12.31
2018-07-12T00:13:24.275Z,12.31
2018-07-12T00:13:28.479Z,12.3
2018-07-12T00:13:32.803Z,12.3
2018-07-12T00:13:37.004Z,12.3
2018-07-12T00:13:41.317Z,12.29
2018-07-12T00:13:45.634Z,12.3
2018-07-12T00:13:49.950Z,12.29
2018-07-12T00:13:54.045Z,12.29
2018-07-12T00:13:58.247Z,12.29
2018-07-12T00:14:02.464Z,12.28
2018-07-12T00:14:06.674Z,12.28
2018-07-12T00:14:10.984Z,12.27
2018-07-12T00:14:15.083Z,12.28
2018-07-12T00:14:19.287Z,12.28
2018-07-12T00:14:23.391Z,12.28
2018-07-12T00:14:27.716Z,12.26
2018-07-12T00:14:31.928Z,12.26
2018-07-12T00:14:36.133Z,12.26
2018-07-12T00:14:40.449Z,12.25
2018-07-12T00:14:44.552Z,12.26
2018-07-12T00:14:48.863Z,12.25
2018-07-12T00:14:53.065Z,12.25
2018-07-12T00:14:57.267Z,12.25
2018-07-12T00:15:01.480Z,12.25
2018-07-12T00:15:05.477Z,12.24
2018-07-12T00:15:09.571Z,12.23
2018-07-12T00:15:13.886Z,12.24
2018-07-12T00:15:18.248Z,12.22
2018-07-12T00:15:22.450Z,12.22
2018-07-12T00:15:26.781Z,12.22
2018-07-12T00:15:30.985Z,12.22
2018-07-12T00:15:35.292Z,12.22
2018-07-12T00:15:39.604Z,12.22
2018-07-12T00:15:43.925Z,12.22
2018-07-12T00:15:47.825Z,12.21
2018-07-12T00:15:52.036Z,12.21
2018-07-12T00:15:56.346Z,12.21
2018-07-12T00:16:00.674Z,12.21
2018-07-12T00:16:04.719Z,12.2
2018-07-12T00:16:08.924Z,12.2
2018-07-12T00:16:13.127Z,12.19
2018-07-12T00:16:17.339Z,12.19
2018-07-12T00:16:21.432Z,12.2
2018-07-12T00:16:25.747Z,12.19
2018-07-12T00:16:29.949Z,12.18
2018-07-12T00:16:34.257Z,12.18
2018-07-12T00:16:38.569Z,12.17
2018-07-12T00:16:42.782Z,12.17
2018-07-12T00:16:46.988Z,12.17
2018-07-12T00:16:51.083Z,12.17
2018-07-12T00:16:55.396Z,12.17
2018-07-12T00:16:59.597Z,12.17
2018-07-12T00:17:03.591Z,12.16
2018-07-12T00:17:07.905Z,12.16
2018-07-12T00:17:12.217Z,12.16
2018-07-12T00:17:16.528Z,12.15
2018-07-12T00:17:20.740Z,12.16
2018-07-12T00:17:25.064Z,12.15
2018-07-12T00:17:29.270Z,12.14
2018-07-12T00:17:33.376Z,12.15
2018-07-12T00:17:37.684Z,12.14
2018-07-12T00:17:41.885Z,12.14
2018-07-12T00:17:46.200Z,12.15
2018-07-12T00:17:50.301Z,12.13
2018-07-12T00:17:54.627Z,12.14
2018-07-12T00:17:58.933Z,12.13
2018-07-12T00:18:03.147Z,12.13
2018-07-12T00:18:07.354Z,12.12
2018-07-12T00:18:11.549Z,12.13
2018-07-12T00:18:15.859Z,12.12
2018-07-12T00:18:20.064Z,12.12
2018-07-12T00:18:24.272Z,12.12
2018-07-12T00:18:28.471Z,12.11
2018-07-12T00:18:32.829Z,12.11
2018-07-12T00:18:37.039Z,12.1
2018-07-12T00:18:41.027Z,12.11
2018-07-12T00:18:45.332Z,12.11
2018-07-12T00:18:49.640Z,12.1
2018-07-12T00:18:53.950Z,12.1
2018-07-12T00:18:58.260Z,12.1
2018-07-12T00:19:02.466Z,12.1
2018-07-12T00:19:06.781Z,12.09
2018-07-12T00:19:10.986Z,12.1
2018-07-12T00:19:15.189Z,12.09
2018-07-12T00:19:19.497Z,12.09
2018-07-12T00:19:23.707Z,12.09
2018-07-12T00:19:27.698Z,12.09
2018-07-12T00:19:31.895Z,12.09
2018-07-12T00:19:36.211Z,12.08
2018-07-12T00:19:40.323Z,12.09
2018-07-12T00:19:44.630Z,12.08
2018-07-12T00:19:48.845Z,12.08
2018-07-12T00:19:53.152Z,12.08
2018-07-12T00:19:57.359Z,12.08
2018-07-12T00:20:01.669Z,12.08
2018-07-12T00:20:05.666Z,12.07
2018-07-12T00:20:09.867Z,12.06
2018-07-12T00:20:14.196Z,12.07
2018-07-12T00:20:18.515Z,12.07
2018-07-12T00:20:22.609Z,12.06
2018-07-12T00:20:26.914Z,12.07
2018-07-12T00:20:31.119Z,12.06
2018-07-12T00:20:35.326Z,12.07
2018-07-12T00:20:39.424Z,12.06
2018-07-12T00:20:43.753Z,12.06
2018-07-12T00:20:47.952Z,12.05
2018-07-12T00:20:52.156Z,12.05
2018-07-12T00:20:56.364Z,12.05
2018-07-12T00:21:00.677Z,12.05
2018-07-12T00:21:04.888Z,12.05
2018-07-12T00:21:09.202Z,12.05
2018-07-12T00:21:13.516Z,12.05
2018-07-12T00:21:17.830Z,12.04
2018-07-12T00:21:22.139Z,12.04
2018-07-12T00:21:26.455Z,12.04
2018-07-12T00:21:30.662Z,12.03
2018-07-12T00:21:34.866Z,12.04
2018-07-12T00:21:39.082Z,12.04
2018-07-12T00:21:43.183Z,12.04
2018-07-12T00:21:47.396Z,12.04
2018-07-12T00:21:51.722Z,12.03
2018-07-12T00:21:55.925Z,12.02
2018-07-12T00:22:00.240Z,12.02
2018-07-12T00:22:04.127Z,12.02
2018-07-12T00:22:08.226Z,12.01
2018-07-12T00:22:12.433Z,12.02
2018-07-12T00:22:16.750Z,12.01
2018-07-12T00:22:20.954Z,12.01
2018-07-12T00:22:25.266Z,12.01
2018-07-12T00:22:29.579Z,12.01
2018-07-12T00:22:33.898Z,12.01
2018-07-12T00:22:38.210Z,12.01
2018-07-12T00:22:42.520Z,12
2018-07-12T00:22:46.619Z,12
2018-07-12T00:22:50.830Z,12
2018-07-12T00:22:55.137Z,12
2018-07-12T00:22:59.448Z,11.99
2018-07-12T00:23:03.711Z,11.99
2018-07-12T00:23:07.924Z,12
2018-07-12T00:23:12.133Z,11.99
2018-07-12T00:23:16.342Z,11.99
2018-07-12T00:23:20.545Z,11.98
2018-07-12T00:23:24.852Z,11.99
2018-07-12T00:23:29.054Z,11.98
2018-07-12T00:23:33.297Z,11.98
2018-07-12T00:23:37.606Z,11.98
2018-07-12T00:23:41.809Z,11.98
2018-07-12T00:23:46.024Z,11.98
2018-07-12T00:23:50.335Z,11.98
2018-07-12T00:23:54.549Z,11.98
2018-07-12T00:23:58.752Z,11.98
2018-07-12T00:24:03.060Z,11.97
2018-07-12T00:24:07.369Z,11.97
2018-07-12T00:24:11.362Z,11.97
2018-07-12T00:24:15.670Z,11.97
2018-07-12T00:24:19.992Z,11.97
2018-07-12T00:24:23.995Z,11.97
2018-07-12T00:24:28.104Z,11.96
2018-07-12T00:24:32.439Z,11.97
2018-07-12T00:24:36.749Z,11.97
2018-07-12T00:24:40.952Z,11.96
2018-07-12T00:24:45.253Z,11.96
2018-07-12T00:24:49.347Z,11.96
2018-07-12T00:24:53.551Z,11.96
2018-07-12T00:24:57.858Z,11.96
2018-07-12T00:25:02.203Z,11.96
2018-07-12T00:25:06.302Z,11.95
2018-07-12T00:25:10.518Z,11.96
2018-07-12T00:25:14.725Z,11.95
2018-07-12T00:25:18.942Z,11.96
2018-07-12T00:25:23.158Z,11.95
2018-07-12T00:25:27.362Z,11.94
2018-07-12T00:25:31.578Z,11.95
2018-07-12T00:25:35.891Z,11.94
2018-07-12T00:25:39.986Z,11.95
2018-07-12T00:25:44.190Z,11.95
2018-07-12T00:25:48.392Z,11.95
2018-07-12T00:25:52.701Z,11.95
2018-07-12T00:25:56.908Z,11.94
2018-07-12T00:26:01.211Z,11.94
2018-07-12T00:26:05.295Z,11.94
2018-07-12T00:26:09.498Z,11.93
2018-07-12T00:26:13.706Z,11.94
2018-07-12T00:26:17.711Z,11.93
2018-07-12T00:26:21.916Z,11.93
2018-07-12T00:26:26.033Z,11.93
2018-07-12T00:26:30.347Z,11.93
2018-07-12T00:26:34.552Z,11.93
2018-07-12T00:26:38.865Z,11.93
2018-07-12T00:26:43.072Z,11.93
2018-07-12T00:26:47.277Z,11.92
2018-07-12T00:26:51.485Z,11.93
2018-07-12T00:26:55.844Z,11.93
2018-07-12T00:27:00.152Z,11.91
2018-07-12T00:27:04.360Z,11.92
2018-07-12T00:27:08.455Z,11.92
2018-07-12T00:27:12.769Z,11.92
2018-07-12T00:27:16.978Z,11.93
2018-07-12T00:27:21.181Z,11.91
2018-07-12T00:27:25.282Z,11.91
2018-07-12T00:27:29.487Z,11.92
2018-07-12T00:27:33.697Z,11.91
2018-07-12T00:27:38.013Z,11.91
2018-07-12T00:27:42.111Z,11.91
2018-07-12T00:27:46.320Z,11.9
2018-07-12T00:27:50.582Z,11.9
2018-07-12T00:27:54.892Z,11.91
2018-07-12T00:27:59.201Z,11.9
2018-07-12T00:28:03.298Z,11.9
2018-07-12T00:28:07.500Z,11.9
2018-07-12T00:28:11.703Z,11.9
2018-07-12T00:28:15.907Z,11.91
2018-07-12T00:28:20.003Z,11.91
2018-07-12T00:28:24.210Z,11.91
2018-07-12T00:28:28.528Z,11.9
2018-07-12T00:28:32.728Z,11.89
2018-07-12T00:28:37.041Z,11.9
2018-07-12T00:28:41.134Z,11.91
2018-07-12T00:28:45.453Z,11.9
2018-07-12T00:28:49.760Z,11.89
2018-07-12T00:28:54.069Z,11.89
2018-07-12T00:28:58.165Z,11.9
2018-07-12T00:29:02.481Z,11.89
2018-07-12T00:29:06.693Z,11.89
2018-07-12T00:29:10.896Z,11.89
2018-07-12T00:29:15.199Z,11.89
2018-07-12T00:29:19.295Z,11.88
2018-07-12T00:29:23.611Z,11.88
2018-07-12T00:29:27.707Z,11.88
2018-07-12T00:29:32.015Z,11.89
2018-07-12T00:29:36.227Z,11.88
2018-07-12T00:29:40.321Z,11.9
2018-07-12T00:29:44.629Z,11.88
2018-07-12T00:29:48.828Z,11.87
2018-07-12T00:29:52.925Z,11.88
2018-07-12T00:29:57.150Z,11.88
2018-07-12T00:30:01.469Z,11.89
2018-07-12T00:30:05.675Z,11.89
2018-07-12T00:30:09.771Z,11.87
2018-07-12T00:30:14.090Z,11.89
2018-07-12T00:30:18.079Z,11.89
2018-07-12T00:30:22.064Z,11.88
2018-07-12T00:30:26.373Z,11.88
2018-07-12T00:30:30.579Z,11.87
2018-07-12T00:30:34.782Z,11.87
2018-07-12T00:30:38.893Z,11.87
2018-07-12T00:30:43.198Z,11.87
2018-07-12T00:30:47.509Z,11.87
2018-07-12T00:30:51.712Z,11.88
2018-07-12T00:30:56.026Z,11.88
2018-07-12T00:31:00.334Z,11.88
2018-07-12T00:31:04.644Z,11.88
2018-07-12T00:31:08.751Z,11.89
2018-07-12T00:31:13.066Z,11.87
2018-07-12T00:31:17.314Z,11.88
2018-07-12T00:31:21.623Z,11.89
2018-07-12T00:31:25.841Z,11.88
2018-07-12T00:31:30.051Z,11.87
2018-07-12T00:31:34.359Z,11.88
2018-07-12T00:31:38.562Z,11.89
2018-07-12T00:31:42.659Z,11.87
2018-07-12T00:31:46.865Z,11.88
2018-07-12T00:31:51.171Z,11.88
2018-07-12T00:31:55.476Z,11.87
2018-07-12T00:31:59.687Z,11.88
2018-07-12T00:32:04.009Z,11.88
2018-07-12T00:32:08.324Z,11.89
2018-07-12T00:32:12.425Z,11.88
2018-07-12T00:32:16.740Z,11.89
2018-07-12T00:32:20.941Z,11.88
2018-07-12T00:32:24.926Z,11.89
2018-07-12T00:32:29.237Z,11.89
2018-07-12T00:32:33.441Z,11.88
2018-07-12T00:32:37.751Z,11.9
2018-07-12T00:32:41.845Z,11.89
2018-07-12T00:32:46.046Z,11.89
2018-07-12T00:32:50.355Z,11.89
2018-07-12T00:32:54.671Z,11.9
2018-07-12T00:32:58.974Z,11.89
2018-07-12T00:33:03.285Z,11.89
2018-07-12T00:33:07.492Z,11.9
2018-07-12T00:33:11.709Z,11.9
2018-07-12T00:33:15.910Z,11.89
2018-07-12T00:33:20.172Z,11.9
2018-07-12T00:33:24.483Z,11.9
2018-07-12T00:33:28.799Z,11.89
2018-07-12T00:33:33.106Z,11.9
2018-07-12T00:33:37.423Z,11.9
2018-07-12T00:33:41.654Z,11.9
2018-07-12T00:33:46.408Z,11.89
2018-07-12T00:33:51.534Z,11.9
2018-07-12T00:33:55.885Z,11.9
2018-07-12T00:34:00.197Z,11.9
2018-07-12T00:34:04.516Z,11.91
2018-07-12T00:34:08.628Z,11.9
2018-07-12T00:34:12.831Z,11.9
2018-07-12T00:34:17.140Z,11.91
2018-07-12T00:34:21.463Z,11.91
2018-07-12T00:34:25.706Z,11.91
2018-07-12T00:34:30.025Z,11.91
2018-07-12T00:34:34.125Z,11.91
2018-07-12T00:34:38.329Z,11.91
2018-07-12T00:34:42.546Z,11.91
2018-07-12T00:34:46.641Z,11.91
2018-07-12T00:34:50.948Z,11.92
2018-07-12T00:34:55.266Z,11.92
2018-07-12T00:34:59.474Z,11.91
2018-07-12T00:35:03.578Z,11.93
2018-07-12T00:35:07.780Z,11.93
2018-07-12T00:35:11.987Z,11.93
2018-07-12T00:35:16.308Z,11.92
2018-07-12T00:35:20.505Z,11.93
2018-07-12T00:35:24.715Z,11.94
2018-07-12T00:35:28.913Z,11.94
2018-07-12T00:35:33.225Z,11.93
2018-07-12T00:35:37.538Z,11.93
2018-07-12T00:35:41.526Z,11.94
2018-07-12T00:35:45.624Z,11.93
2018-07-12T00:35:49.939Z,11.94
2018-07-12T00:35:54.254Z,11.94
2018-07-12T00:35:58.575Z,11.93
2018-07-12T00:36:02.853Z,11.93
2018-07-12T00:36:07.065Z,11.93
2018-07-12T00:36:11.279Z,11.94
2018-07-12T00:36:15.483Z,11.95
2018-07-12T00:36:19.797Z,11.94
2018-07-12T00:36:24.112Z,11.94
2018-07-12T00:36:28.425Z,11.95
2018-07-12T00:36:32.628Z,11.95
2018-07-12T00:36:36.829Z,11.94
2018-07-12T00:36:41.033Z,11.95
2018-07-12T00:36:45.130Z,11.95
2018-07-12T00:36:49.225Z,11.96
2018-07-12T00:36:53.537Z,11.96
2018-07-12T00:36:57.740Z,11.96
2018-07-12T00:37:01.942Z,11.96
2018-07-12T00:37:06.257Z,11.97
2018-07-12T00:37:10.564Z,11.96
2018-07-12T00:37:14.937Z,11.97
2018-07-12T00:37:19.046Z,11.96
2018-07-12T00:37:23.039Z,11.97
2018-07-12T00:37:27.350Z,11.97
2018-07-12T00:37:31.665Z,11.97
2018-07-12T00:37:35.876Z,11.97
2018-07-12T00:37:40.184Z,11.97
2018-07-12T00:37:44.494Z,11.98
2018-07-12T00:37:48.594Z,11.98
2018-07-12T00:37:52.805Z,11.98
2018-07-12T00:37:57.014Z,11.98
2018-07-12T00:38:01.223Z,11.98
2018-07-12T00:38:05.543Z,11.99
2018-07-12T00:38:09.773Z,11.97
2018-07-12T00:38:14.098Z,11.99
2018-07-12T00:38:18.413Z,11.99
2018-07-12T00:38:22.618Z,11.98
2018-07-12T00:38:26.825Z,11.99
2018-07-12T00:38:31.149Z,11.99
2018-07-12T00:38:35.251Z,11.99
2018-07-12T00:38:39.554Z,11.99
2018-07-12T00:38:43.918Z,11.99
2018-07-12T00:38:48.236Z,11.99
2018-07-12T00:38:52.544Z,12
2018-07-12T00:38:56.646Z,11.99
2018-07-12T00:39:00.958Z,11.99
2018-07-12T00:39:05.212Z,11.99
2018-07-12T00:39:09.523Z,12
2018-07-12T00:39:13.833Z,11.99
2018-07-12T00:39:18.144Z,12
2018-07-12T00:39:22.460Z,12.01
2018-07-12T00:39:26.557Z,12.01
2018-07-12T00:39:30.868Z,12
2018-07-12T00:39:35.178Z,12.01
2018-07-12T00:39:39.489Z,12.01
2018-07-12T00:39:43.807Z,12.01
2018-07-12T00:39:48.009Z,12.01
2018-07-12T00:39:52.221Z,12.02
2018-07-12T00:39:56.537Z,12.01
2018-07-12T00:40:00.868Z,12.02
2018-07-12T00:40:04.928Z,12.01
2018-07-12T00:40:09.244Z,12.02
2018-07-12T00:40:13.342Z,12.02
2018-07-12T00:40:17.541Z,12.02
2018-07-12T00:40:21.741Z,12.02
2018-07-12T00:40:25.949Z,12.01
2018-07-12T00:40:30.264Z,12.03
2018-07-12T00:40:34.466Z,12.02
2018-07-12T00:40:38.670Z,12.03
2018-07-12T00:40:43.023Z,12.03
2018-07-12T00:40:47.136Z,12.03
2018-07-12T00:40:51.340Z,12.03
2018-07-12T00:40:55.653Z,12.03
2018-07-12T00:40:59.964Z,12.03
2018-07-12T00:41:04.066Z,12.04
2018-07-12T00:41:08.162Z,12.03
2018-07-12T00:41:12.364Z,12.03
2018-07-12T00:41:16.671Z,12.04
2018-07-12T00:41:20.768Z,12.04
2018-07-12T00:41:24.973Z,12.03
2018-07-12T00:41:29.281Z,12.03
2018-07-12T00:41:33.487Z,12.04
2018-07-12T00:41:37.582Z,12.03
2018-07-12T00:41:41.893Z,12.03
2018-07-12T00:41:46.092Z,12.03
2018-07-12T00:41:50.401Z,12.04
2018-07-12T00:41:54.718Z,12.04
2018-07-12T00:41:58.934Z,12.04
2018-07-12T00:42:03.149Z,12.04
2018-07-12T00:42:07.147Z,12.04
2018-07-12T00:42:11.347Z,12.04
2018-07-12T00:42:15.657Z,12.04
2018-07-12T00:42:19.756Z,12.04
2018-07-12T00:42:23.958Z,12.04
2018-07-12T00:42:28.183Z,12.04
2018-07-12T00:42:32.388Z,12.04
2018-07-12T00:42:36.701Z,12.04
2018-07-12T00:42:41.014Z,12.04
2018-07-12T00:42:45.214Z,12.05
2018-07-12T00:42:49.416Z,12.04
2018-07-12T00:42:53.739Z,12.05
2018-07-12T00:42:57.947Z,12.05
2018-07-12T00:43:02.150Z,12.05
2018-07-12T00:43:06.351Z,12.05
2018-07-12T00:43:10.661Z,12.05
2018-07-12T00:43:14.975Z,12.04
2018-07-12T00:43:19.178Z,12.05
2018-07-12T00:43:23.490Z,12.05
2018-07-12T00:43:27.701Z,12.04
2018-07-12T00:43:32.010Z,12.04
2018-07-12T00:43:36.330Z,12.05
2018-07-12T00:43:40.427Z,12.05
2018-07-12T00:43:44.737Z,12.04
2018-07-12T00:43:48.954Z,12.05
2018-07-12T00:43:52.956Z,12.05
2018-07-12T00:43:57.157Z,12.05
2018-07-12T00:44:01.482Z,12.05
2018-07-12T00:44:05.580Z,12.05
2018-07-12T00:44:09.787Z,12.05
2018-07-12T00:44:14.110Z,12.04
2018-07-12T00:44:18.149Z,12.05
2018-07-12T00:44:22.457Z,12.05
2018-07-12T00:44:26.667Z,12.04
2018-07-12T00:44:30.869Z,12.04
2018-07-12T00:44:34.968Z,12.05
2018-07-12T00:44:39.068Z,12.04
2018-07-12T00:44:43.267Z,12.04
2018-07-12T00:44:47.472Z,12.04
2018-07-12T00:44:51.674Z,12.04
2018-07-12T00:44:55.874Z,12.05
2018-07-12T00:44:59.974Z,12.04
2018-07-12T00:45:04.072Z,12.04
2018-07-12T00:45:08.382Z,12.04
2018-07-12T00:45:12.690Z,12.04
2018-07-12T00:45:17.006Z,12.04
2018-07-12T00:45:21.109Z,12.04
2018-07-12T00:45:25.314Z,12.04
2018-07-12T00:45:29.515Z,12.04
2018-07-12T00:45:33.822Z,12.03
2018-07-12T00:45:38.033Z,12.04
2018-07-12T00:45:42.343Z,12.03
2018-07-12T00:45:46.545Z,12.03
2018-07-12T00:45:50.852Z,12.04
2018-07-12T00:45:55.169Z,12.03
2018-07-12T00:45:59.371Z,12.04
2018-07-12T00:46:03.473Z,12.03
2018-07-12T00:46:07.697Z,12.03
2018-07-12T00:46:11.792Z,12.04
2018-07-12T00:46:16.001Z,12.04
2018-07-12T00:46:20.334Z,12.04
2018-07-12T00:46:24.537Z,12.03
2018-07-12T00:46:28.632Z,12.03
2018-07-12T00:46:32.836Z,12.03
2018-07-12T00:46:37.036Z,12.04
2018-07-12T00:46:41.132Z,12.04
2018-07-12T00:46:45.442Z,12.03
2018-07-12T00:46:49.766Z,12.03
2018-07-12T00:46:54.077Z,12.03
2018-07-12T00:46:58.392Z,12.04
2018-07-12T00:47:02.730Z,12.02
2018-07-12T00:47:06.723Z,12.03
2018-07-12T00:47:10.931Z,12.03
2018-07-12T00:47:15.243Z,12.02
2018-07-12T00:47:19.446Z,12.03
2018-07-12T00:47:23.537Z,12.03
2018-07-12T00:47:27.527Z,12.03
2018-07-12T00:47:31.517Z,12.03
2018-07-12T00:47:35.829Z,12.03
2018-07-12T00:47:39.919Z,12.03
2018-07-12T00:47:44.228Z,12.03
2018-07-12T00:47:48.537Z,12.03
2018-07-12T00:47:52.846Z,12.01
2018-07-12T00:47:57.045Z,12.02
2018-07-12T00:48:01.242Z,12.02
2018-07-12T00:48:05.554Z,12.01
2018-07-12T00:48:09.759Z,12.02
2018-07-12T00:48:14.006Z,12.02
2018-07-12T00:48:18.213Z,12.01
2018-07-12T00:48:22.095Z,12.02
2018-07-12T00:48:26.409Z,12.02
2018-07-12T00:48:30.726Z,12.02
2018-07-12T00:48:34.943Z,12.01
2018-07-12T00:48:39.038Z,12.01
2018-07-12T00:48:43.236Z,12.01
2018-07-12T00:48:47.545Z,12.02
2018-07-12T00:48:51.755Z,12.01
2018-07-12T00:48:56.067Z,12.01
2018-07-12T00:49:00.166Z,12.02
2018-07-12T00:49:04.380Z,12.02
2018-07-12T00:49:08.591Z,12.01
2018-07-12T00:49:12.796Z,12
2018-07-12T00:49:17.102Z,12.01
2018-07-12T00:49:21.407Z,12.01
2018-07-12T00:49:25.501Z,12
2018-07-12T00:49:29.710Z,12.01
2018-07-12T00:49:34.026Z,12.01
2018-07-12T00:49:38.337Z,12
2018-07-12T00:49:42.535Z,12
2018-07-12T00:49:46.736Z,12
2018-07-12T00:49:50.937Z,12
2018-07-12T00:49:55.242Z,12
2018-07-12T00:49:59.549Z,12.01
2018-07-12T00:50:03.649Z,12.01
2018-07-12T00:50:07.649Z,12
2018-07-12T00:50:11.851Z,11.99
2018-07-12T00:50:16.167Z,12
2018-07-12T00:50:20.262Z,12
2018-07-12T00:50:24.566Z,12
2018-07-12T00:50:28.777Z,11.99
2018-07-12T00:50:33.098Z,12
2018-07-12T00:50:37.301Z,12
2018-07-12T00:50:41.511Z,11.99
2018-07-12T00:50:45.826Z,11.99
2018-07-12T00:50:50.141Z,11.99
2018-07-12T00:50:54.458Z,11.98
2018-07-12T00:50:58.764Z,11.99
2018-07-12T00:51:03.070Z,11.98
2018-07-12T00:51:07.281Z,11.99
2018-07-12T00:51:11.485Z,11.98
2018-07-12T00:51:15.800Z,11.98
2018-07-12T00:51:20.006Z,11.99
2018-07-12T00:51:24.217Z,11.99
2018-07-12T00:51:28.422Z,11.97
2018-07-12T00:51:32.734Z,11.97
2018-07-12T00:51:37.046Z,11.97
2018-07-12T00:51:41.251Z,11.97
2018-07-12T00:51:45.565Z,11.96
2018-07-12T00:51:49.916Z,11.96
2018-07-12T00:51:54.225Z,11.97
2018-07-12T00:51:58.331Z,11.97
2018-07-12T00:52:02.431Z,11.96
2018-07-12T00:52:06.634Z,11.96
2018-07-12T00:52:10.941Z,11.96
2018-07-12T00:52:15.142Z,11.96
2018-07-12T00:52:19.454Z,11.95
2018-07-12T00:52:23.651Z,11.94
2018-07-12T00:52:27.960Z,11.95
2018-07-12T00:52:32.162Z,11.94
2018-07-12T00:52:36.471Z,11.94
2018-07-12T00:52:40.570Z,11.94
2018-07-12T00:52:44.882Z,11.93
2018-07-12T00:52:49.085Z,11.93
2018-07-12T00:52:53.391Z,11.92
2018-07-12T00:52:57.593Z,11.92
2018-07-12T00:53:01.914Z,11.91
2018-07-12T00:53:05.906Z,11.92
2018-07-12T00:53:10.107Z,11.91
2018-07-12T00:53:14.313Z,11.9
2018-07-12T00:53:18.304Z,11.92
2018-07-12T00:53:22.612Z,11.9
2018-07-12T00:53:26.703Z,11.89
2018-07-12T00:53:30.903Z,11.89
2018-07-12T00:53:35.203Z,11.88
2018-07-12T00:53:39.509Z,11.88
2018-07-12T00:53:43.708Z,11.88
2018-07-12T00:53:47.934Z,11.88
2018-07-12T00:53:52.250Z,11.87
2018-07-12T00:53:56.473Z,11.87
2018-07-12T00:54:00.784Z,11.86
2018-07-12T00:54:04.985Z,11.86
2018-07-12T00:54:09.083Z,11.86
2018-07-12T00:54:13.283Z,11.87
2018-07-12T00:54:17.380Z,11.85
2018-07-12T00:54:21.473Z,11.86
2018-07-12T00:54:25.802Z,11.85
2018-07-12T00:54:29.897Z,11.85
2018-07-12T00:54:34.102Z,11.84
2018-07-12T00:54:38.303Z,11.83
2018-07-12T00:54:42.620Z,11.83